createdAt,value
2017-12-06T00:00:44.874Z,26.43
2017-12-06T00:03:13.279Z,28.73
2017-12-06T00:05:41.706Z,25.37
2017-12-06T00:08:10.132Z,23.53
2017-12-06T00:10:38.512Z,22.97
2017-12-06T00:13:12.414Z,25.90
2017-12-06T00:15:42.797Z,22.67
2017-12-06T00:18:11.186Z,21.00
2017-12-06T00:20:40.476Z,27.30
2017-12-06T00:23:09.190Z,24.30
2017-12-06T00:25:37.568Z,24.93
2017-12-06T00:28:10.480Z,26.47
2017-12-06T00:30:38.824Z,25.80
2017-12-06T00:33:07.192Z,28.90
2017-12-06T00:35:35.544Z,29.43
2017-12-06T00:38:04.023Z,29.47
2017-12-06T00:40:33.370Z,25.90
2017-12-06T00:43:01.698Z,28.57
2017-12-06T00:45:30.141Z,22.07
2017-12-06T00:47:58.507Z,25.90
2017-12-06T00:50:26.940Z,21.10
2017-12-06T00:52:55.320Z,25.50
2017-12-06T00:55:23.692Z,26.87
2017-12-06T00:57:52.069Z,28.50
2017-12-06T01:00:20.422Z,32.07
2017-12-06T01:02:48.764Z,26.07
2017-12-06T01:05:17.153Z,26.47
2017-12-06T01:07:45.504Z,22.47
2017-12-06T01:10:13.919Z,25.63
2017-12-06T01:12:42.272Z,27.93
2017-12-06T01:15:10.706Z,25.53
2017-12-06T01:17:39.112Z,23.17
2017-12-06T01:20:07.485Z,26.70
2017-12-06T01:22:35.817Z,22.20
2017-12-06T01:25:04.181Z,23.17
2017-12-06T01:27:32.538Z,25.03
2017-12-06T01:30:00.911Z,27.03
2017-12-06T01:32:29.285Z,30.57
2017-12-06T01:34:57.679Z,23.50
2017-12-06T01:37:26.023Z,27.20
2017-12-06T01:39:54.441Z,25.27
2017-12-06T01:42:22.795Z,27.33
2017-12-06T01:44:51.198Z,26.57
2017-12-06T01:47:19.578Z,21.77
2017-12-06T01:49:47.907Z,26.00
2017-12-06T01:52:16.297Z,28.23
2017-12-06T01:54:44.647Z,30.40
2017-12-06T01:57:12.972Z,28.33
2017-12-06T01:59:41.372Z,24.27
2017-12-06T02:02:09.752Z,27.50
2017-12-06T02:04:38.181Z,32.70
2017-12-06T02:07:06.495Z,34.50
2017-12-06T02:09:34.893Z,25.50
2017-12-06T02:12:03.220Z,24.50
2017-12-06T02:14:31.577Z,26.40
2017-12-06T02:16:59.924Z,27.63
2017-12-06T02:19:28.349Z,33.60
2017-12-06T02:21:56.697Z,23.73
2017-12-06T02:24:25.170Z,24.17
2017-12-06T02:26:53.560Z,25.27
2017-12-06T02:29:21.906Z,27.53
2017-12-06T02:31:50.344Z,21.13
2017-12-06T02:34:18.713Z,32.27
2017-12-06T02:36:47.033Z,25.40
2017-12-06T02:39:15.357Z,29.73
2017-12-06T02:41:55.338Z,24.53
2017-12-06T02:44:35.305Z,26.87
2017-12-06T02:47:03.671Z,29.37
2017-12-06T02:49:32.056Z,20.80
2017-12-06T02:52:00.394Z,24.50
2017-12-06T02:54:28.753Z,25.63
2017-12-06T02:56:57.173Z,30.50
2017-12-06T02:59:25.616Z,26.60
2017-12-06T03:01:53.968Z,26.40
2017-12-06T03:04:22.357Z,24.97
2017-12-06T03:06:50.716Z,26.47
2017-12-06T03:09:19.085Z,26.50
2017-12-06T03:11:47.485Z,21.73
2017-12-06T03:14:15.831Z,25.87
2017-12-06T03:16:44.232Z,26.17
2017-12-06T03:19:12.601Z,28.70
2017-12-06T03:21:42.289Z,24.50
2017-12-06T03:24:10.701Z,30.23
2017-12-06T03:26:39.100Z,28.47
2017-12-06T03:29:07.478Z,23.20
2017-12-06T03:31:35.808Z,39.00
2017-12-06T03:34:04.161Z,41.00
2017-12-06T03:39:07.131Z,38.77
2017-12-06T03:41:35.460Z,28.07
2017-12-06T03:44:03.780Z,26.20
2017-12-06T03:46:32.153Z,25.70
2017-12-06T03:49:00.532Z,25.70
2017-12-06T03:51:28.894Z,35.77
2017-12-06T03:53:57.222Z,24.30
2017-12-06T03:56:25.673Z,28.43
2017-12-06T03:58:54.004Z,30.33
2017-12-06T04:01:22.415Z,35.10
2017-12-06T04:03:50.796Z,28.67
2017-12-06T04:06:19.135Z,29.17
2017-12-06T04:08:47.612Z,30.97
2017-12-06T04:11:15.972Z,30.73
2017-12-06T04:13:44.341Z,32.57
2017-12-06T04:16:12.692Z,29.50
2017-12-06T04:18:41.063Z,30.03
2017-12-06T04:21:09.493Z,36.50
2017-12-06T04:23:37.848Z,29.03
2017-12-06T04:26:06.218Z,27.63
2017-12-06T04:28:34.557Z,28.40
2017-12-06T04:31:02.921Z,36.23
2017-12-06T04:33:31.520Z,37.80
2017-12-06T04:35:59.844Z,36.17
2017-12-06T04:38:28.234Z,34.13
2017-12-06T04:40:56.571Z,31.27
2017-12-06T04:43:24.959Z,33.77
2017-12-06T04:45:53.355Z,34.00
2017-12-06T04:48:21.705Z,38.47
2017-12-06T04:50:50.070Z,33.07
2017-12-06T04:53:18.529Z,35.00
2017-12-06T04:55:46.894Z,38.80
2017-12-06T04:58:15.259Z,32.27
2017-12-06T05:00:43.615Z,32.23
2017-12-06T05:03:12.013Z,30.17
2017-12-06T05:05:40.374Z,37.33
2017-12-06T05:08:08.756Z,31.70
2017-12-06T05:10:37.108Z,39.43
2017-12-06T05:13:05.449Z,34.87
2017-12-06T05:15:33.847Z,30.40
2017-12-06T05:18:02.183Z,32.50
2017-12-06T05:20:30.776Z,28.80
2017-12-06T05:22:59.130Z,28.67
2017-12-06T05:25:27.542Z,33.47
2017-12-06T05:27:55.878Z,40.50
2017-12-06T05:30:24.277Z,24.13
2017-12-06T05:32:52.648Z,34.90
2017-12-06T05:35:20.996Z,30.13
2017-12-06T05:37:49.433Z,26.87
2017-12-06T05:40:17.822Z,24.37
2017-12-06T05:42:46.183Z,24.57
2017-12-06T05:45:14.609Z,28.30
2017-12-06T05:47:43.021Z,21.97
2017-12-06T05:50:11.385Z,23.00
2017-12-06T05:52:40.220Z,18.03
2017-12-06T05:55:08.939Z,25.23
2017-12-06T05:57:37.314Z,25.77
2017-12-06T06:00:06.236Z,23.93
2017-12-06T06:02:34.647Z,28.60
2017-12-06T06:07:37.943Z,28.03
2017-12-06T06:10:06.300Z,27.60
2017-12-06T06:12:34.647Z,28.17
2017-12-06T06:15:03.033Z,18.30
2017-12-06T06:17:31.440Z,24.80
2017-12-06T06:20:00.815Z,28.83
2017-12-06T06:22:29.618Z,24.03
2017-12-06T06:24:58.036Z,20.20
2017-12-06T06:27:26.525Z,25.50
2017-12-06T06:29:54.965Z,28.13
2017-12-06T06:32:23.298Z,24.13
2017-12-06T06:34:51.725Z,24.23
2017-12-06T06:37:20.182Z,22.80
2017-12-06T06:39:49.022Z,28.97
2017-12-06T06:42:17.440Z,19.43
2017-12-06T06:47:18.351Z,19.40
2017-12-06T06:49:47.134Z,27.07
2017-12-06T06:52:15.622Z,29.57
2017-12-06T06:54:44.117Z,27.10
2017-12-06T06:57:12.481Z,26.00
2017-12-06T06:59:40.879Z,24.53
2017-12-06T07:04:45.367Z,25.50
2017-12-06T07:07:13.874Z,26.50
2017-12-06T07:09:42.467Z,24.53
2017-12-06T07:12:11.073Z,21.93
2017-12-06T07:14:39.751Z,25.10
2017-12-06T07:17:08.330Z,25.67
2017-12-06T07:19:42.589Z,23.37
2017-12-06T07:22:11.055Z,22.73
2017-12-06T07:24:41.232Z,24.20
2017-12-06T07:29:42.869Z,21.27
2017-12-06T07:32:11.437Z,23.57
2017-12-06T07:34:40.195Z,30.83
2017-12-06T07:37:08.699Z,23.07
2017-12-06T07:39:37.138Z,24.10
2017-12-06T07:44:38.858Z,47.03
2017-12-06T07:49:39.935Z,25.57
2017-12-06T07:52:12.013Z,23.40
2017-12-06T07:59:53.073Z,29.47
2017-12-06T08:04:57.113Z,33.60
2017-12-06T08:10:01.057Z,21.30
2017-12-06T08:12:29.896Z,29.23
2017-12-06T08:14:58.352Z,22.47
2017-12-06T08:17:30.508Z,52.43
2017-12-06T08:22:35.647Z,28.00
2017-12-06T08:25:04.927Z,28.13
2017-12-06T08:27:37.203Z,28.23
2017-12-06T08:32:38.510Z,29.47
2017-12-06T08:35:07.033Z,29.60
2017-12-06T08:37:39.020Z,23.17
2017-12-06T08:40:08.406Z,23.90
2017-12-06T08:42:43.460Z,33.17
2017-12-06T08:47:47.925Z,34.50
2017-12-06T08:52:57.418Z,22.53
2017-12-06T08:55:27.470Z,22.17
2017-12-06T09:03:02.814Z,27.97
2017-12-06T09:13:12.366Z,26.07
2017-12-06T09:20:46.861Z,28.93
2017-12-06T09:23:15.575Z,31.77
2017-12-06T09:25:45.619Z,26.67
2017-12-06T09:30:46.582Z,25.63
2017-12-06T09:33:14.996Z,24.90
2017-12-06T09:35:43.816Z,22.03
2017-12-06T09:38:15.853Z,18.67
2017-12-06T09:40:47.791Z,15.77
2017-12-06T09:43:16.387Z,17.10
2017-12-06T09:45:44.911Z,22.20
2017-12-06T09:50:47.673Z,17.20
2017-12-06T09:55:48.958Z,18.90
2017-12-06T10:06:41.210Z,19.43
2017-12-06T10:09:11.434Z,13.27
2017-12-06T10:11:40.923Z,15.47
2017-12-06T10:19:19.916Z,12.67
2017-12-06T10:24:24.716Z,16.30
2017-12-06T10:26:56.785Z,11.13
2017-12-06T10:29:25.391Z,14.87
2017-12-06T10:34:26.919Z,10.97
2017-12-06T10:36:57.251Z,11.57
2017-12-06T10:39:26.020Z,13.60
2017-12-06T10:44:29.277Z,15.03
2017-12-06T10:54:41.232Z,29.23
2017-12-06T11:07:22.835Z,11.23
2017-12-06T11:09:52.089Z,14.97
2017-12-06T11:12:21.090Z,11.80
2017-12-06T11:14:51.520Z,20.13
2017-12-06T11:17:20.009Z,12.90
2017-12-06T11:19:48.600Z,13.73
2017-12-06T11:22:17.571Z,17.97
2017-12-06T11:24:48.127Z,11.93
2017-12-06T11:27:17.445Z,15.33
2017-12-06T11:34:55.239Z,19.10
2017-12-06T11:50:21.346Z,17.60
2017-12-06T12:00:36.024Z,18.03
2017-12-06T12:16:28.550Z,26.20
2017-12-06T12:18:58.857Z,23.67
2017-12-06T12:49:40.429Z,24.50
2017-12-06T12:55:19.181Z,35.97
2017-12-06T13:03:09.771Z,31.37
2017-12-06T13:05:41.072Z,40.63
2017-12-06T13:08:16.391Z,39.80
2017-12-06T13:21:08.801Z,35.53
2017-12-06T13:23:37.588Z,33.77
2017-12-06T13:39:09.455Z,41.10
2017-12-06T13:41:41.547Z,42.77
2017-12-06T13:44:13.812Z,33.33
2017-12-06T13:46:42.312Z,40.83
2017-12-06T13:49:13.449Z,27.87
2017-12-06T14:01:57.976Z,22.50
2017-12-06T14:07:04.739Z,33.00
2017-12-06T14:09:37.801Z,33.93
2017-12-06T14:12:08.046Z,25.90
2017-12-06T14:22:18.406Z,36.57
2017-12-06T14:29:54.260Z,24.80
2017-12-06T14:37:30.046Z,32.73
2017-12-06T14:39:59.798Z,24.53
2017-12-06T14:42:31.212Z,21.30
2017-12-06T14:45:00.293Z,26.17
2017-12-06T15:05:35.888Z,28.97
2017-12-06T15:15:45.553Z,34.60
2017-12-06T15:29:50.166Z,30.23
2017-12-06T15:34:54.969Z,29.93
2017-12-06T15:39:56.429Z,26.07
2017-12-06T16:06:19.834Z,29.33
2017-12-06T16:11:22.732Z,28.40
2017-12-06T16:13:55.923Z,36.77
2017-12-06T16:18:57.570Z,36.07
2017-12-06T16:21:34.562Z,50.33
2017-12-06T16:24:04.299Z,33.13
2017-12-06T16:31:55.375Z,26.10
2017-12-06T16:40:10.695Z,27.43
2017-12-06T17:14:10.523Z,45.80
2017-12-06T17:16:39.113Z,44.43
2017-12-06T17:24:18.119Z,46.10
2017-12-06T17:37:12.866Z,41.80
2017-12-06T17:52:57.104Z,52.77
2017-12-06T18:11:13.735Z,43.97
2017-12-06T18:18:48.449Z,46.30
2017-12-06T18:26:28.726Z,45.67
2017-12-06T18:28:58.544Z,45.97
2017-12-06T18:33:59.992Z,53.33
2017-12-06T18:36:30.911Z,53.13
2017-12-06T18:39:00.249Z,48.87
2017-12-06T18:44:04.310Z,45.90
2017-12-06T18:49:08.649Z,57.30
2017-12-06T18:51:42.027Z,57.07
2017-12-06T18:59:17.707Z,50.00
2017-12-06T19:06:56.055Z,48.60
2017-12-06T19:09:30.900Z,50.50
2017-12-06T19:11:59.339Z,53.83
2017-12-06T19:14:32.326Z,49.03
2017-12-06T19:17:00.746Z,54.83
2017-12-06T19:19:29.166Z,50.23
2017-12-06T19:24:33.682Z,45.97
2017-12-06T19:27:02.192Z,49.00
2017-12-06T19:29:30.913Z,52.63
2017-12-06T19:34:32.092Z,45.00
2017-12-06T19:39:33.046Z,52.57
2017-12-06T19:42:01.560Z,52.23
2017-12-06T19:44:30.069Z,54.83
2017-12-06T19:46:58.859Z,61.60
2017-12-06T19:49:27.507Z,55.20
2017-12-06T19:51:55.884Z,72.37
2017-12-06T19:54:30.848Z,52.83
2017-12-06T19:57:00.735Z,54.20
2017-12-06T19:59:29.155Z,55.23
2017-12-06T20:01:57.763Z,54.17
2017-12-06T20:04:28.158Z,54.47
2017-12-06T20:09:31.351Z,47.27
2017-12-06T20:17:10.237Z,49.63
2017-12-06T20:19:40.246Z,60.93
2017-12-06T20:22:08.943Z,45.63
2017-12-06T20:24:37.347Z,51.93
2017-12-06T20:34:51.462Z,56.83
2017-12-06T20:37:19.956Z,60.90
2017-12-06T20:39:48.367Z,47.70
2017-12-06T20:42:16.867Z,55.80
2017-12-06T20:44:45.472Z,48.37
2017-12-06T20:49:51.625Z,48.17
2017-12-06T20:52:21.870Z,46.70
2017-12-06T20:54:50.280Z,58.33
2017-12-06T20:57:18.658Z,55.43
2017-12-06T21:04:53.447Z,57.27
2017-12-06T21:07:21.839Z,56.27
2017-12-06T21:09:50.231Z,46.63
2017-12-06T21:12:20.376Z,60.10
2017-12-06T21:14:49.000Z,57.00
2017-12-06T21:17:17.495Z,54.27
2017-12-06T21:19:45.863Z,56.00
2017-12-06T21:22:18.091Z,60.23
2017-12-06T21:24:47.785Z,57.07
2017-12-06T21:27:17.000Z,55.40
2017-12-06T21:29:46.303Z,50.17
2017-12-06T21:32:14.654Z,48.80
2017-12-06T21:34:43.042Z,51.47
2017-12-06T21:37:11.373Z,45.53
2017-12-06T21:39:40.818Z,51.60
2017-12-06T21:42:09.422Z,57.33
2017-12-06T21:44:37.808Z,63.20
2017-12-06T21:47:08.705Z,73.17
2017-12-06T21:49:37.178Z,57.80
2017-12-06T21:52:05.681Z,56.37
2017-12-06T21:54:34.020Z,53.27
2017-12-06T21:57:02.384Z,52.90
2017-12-06T21:59:30.733Z,55.23
2017-12-06T22:02:00.046Z,50.87
2017-12-06T22:04:29.120Z,54.43
2017-12-06T22:06:59.013Z,58.30
2017-12-06T22:09:28.306Z,52.87
2017-12-06T22:11:56.674Z,53.23
2017-12-06T22:14:25.163Z,47.90
2017-12-06T22:16:53.556Z,55.03
2017-12-06T22:19:22.000Z,48.33
2017-12-06T22:21:50.409Z,55.40
2017-12-06T22:24:18.771Z,55.90
2017-12-06T22:26:47.102Z,51.20
2017-12-06T22:29:15.467Z,58.17
2017-12-06T22:31:44.224Z,50.37
2017-12-06T22:34:12.617Z,44.60
2017-12-06T22:36:42.059Z,54.80
2017-12-06T22:39:10.453Z,56.30
2017-12-06T22:41:38.849Z,43.77
2017-12-06T22:44:07.386Z,47.50
2017-12-06T22:46:35.795Z,53.37
2017-12-06T22:49:04.165Z,47.60
2017-12-06T22:51:32.545Z,55.40
2017-12-06T22:54:02.129Z,58.47
2017-12-06T22:56:30.511Z,58.50
2017-12-06T22:58:58.889Z,58.73
2017-12-06T23:01:27.277Z,56.93
2017-12-06T23:03:55.625Z,55.17
2017-12-06T23:06:24.058Z,54.37
2017-12-06T23:08:52.380Z,60.97
2017-12-06T23:11:20.770Z,46.90
2017-12-06T23:13:49.122Z,61.50
2017-12-06T23:16:17.523Z,58.13
2017-12-06T23:18:45.900Z,56.67
2017-12-06T23:21:14.278Z,48.40
2017-12-06T23:23:42.640Z,54.77
2017-12-06T23:26:10.969Z,54.33
2017-12-06T23:28:39.325Z,54.17
2017-12-06T23:31:07.649Z,58.90
2017-12-06T23:33:36.041Z,52.57
2017-12-06T23:36:04.393Z,54.67
2017-12-06T23:38:32.726Z,54.50
2017-12-06T23:41:01.154Z,48.80
2017-12-06T23:43:29.492Z,57.03
2017-12-06T23:45:57.884Z,58.37
2017-12-06T23:48:26.254Z,64.60
2017-12-06T23:50:54.589Z,57.67
2017-12-06T23:53:22.948Z,64.27
2017-12-06T23:55:51.311Z,55.23
2017-12-06T23:58:19.754Z,58.73
